Terminal Aerodrome Forecast
Issued by NWS Milwaukee/Sullivan, WI

Home | Current Version | Previous Version | Text Only | Print | Product List | Glossary On
Versions: 1 2 3 4 5 6 7 8 9 10 11 12 13 14 15 16 17 18 19 20 21 22 23
000
FTUS43 KMKX 180321 AAA
TAFMKE
TAF AMD
KMKE 180321Z 1803/1906 22012KT P6SM SKC WS020/23035KT
     FM180800 22008KT P6SM SKC WS020/24035KT
     FM181300 21013KT P6SM SKC
     FM181600 20014G23KT P6SM SKC
     FM182200 21015KT P6SM FEW250
     FM190000 21012KT P6SM FEW250 WS020/22040KT=

USA.gov is the U.S. government's official web portal to all federal, state and local government web resources and services.